Terminal Aerodrome Forecast
Issued by NWS

Home | Current Version | Previous Version | Text Only | Print | Product List | Glossary Off
Versions: 1 2 3 4 5 6 7 8 9 10 11 12 13 14 15 16 17

994
FTUS43 KMPX 290520
TAFAXN
TAF
KAXN 290520Z 2906/3006 36004KT P6SM SCT250
     FM290800 05004KT P6SM SCT250
     FM291600 05010KT P6SM BKN250
     FM300300 07006KT P6SM OVC150=

USA.gov is the U.S. government's official web portal to all federal, state and local government web resources and services.